hero-logo

Top 15 Knowers of APC Anadarko Petroleum Corp - 2017-07-25

Rank Fund Result (K)
1 Zimmer Partners Lp $24,212
2 Encompass Capital Advisors Llc $5,720
3 Sir Capital Management L P $2,458
4 Arosa Capital Management Lp $2,396
5 Arrowgrass Capital Partners Llp $2,319
6 Mik Capital Llc $1,786
7 Passport Capital Llc $1,546
8 Carlson Capital L P $1,510
9 Graticule Asia Macro Advisors Llc $985
10 Brigade Capital Management Lp $869
11 Folger Hill Asset Management Lp $833
12 Jacobs Levy Equity Management Inc $791
13 Bp Capital Fund Advisors Llc $444
14 California State Teachers Retirement System $389
15 Gotham Asset Management Llc $308
Price Chart and News From Google Finance for APC Anadarko Petroleum Corp
Owner Date Shares Change Price Change Result (K)
3g Capital Partners Lp 2017-03-31 500,000 $-7.73 $-3,865
Acrospire Investment Management Llc 2017-03-31 700 $-7.73 $-5
Adams Diversified Equity Fund Inc 2017-03-31 0 $-7.73 $0
Adams Natural Resources Fund Inc 2017-03-31 53,500 $-7.73 $-413
Advantage Investment Management Llc 2017-03-31 504 $-7.73 $-3
Allen Investment Management Llc 2017-03-31 0 $-7.73 $0
Amalgamated Bank 2017-03-31 2,829 $-7.73 $-21
American Money Management Llc 2017-03-31 -15,652 $-7.73 $120
Anchor Bolt Capital Lp 2017-03-31 295,564 $-7.73 $-2,284
Ancora Advisors Llc 2017-03-31 -1,800 $-7.73 $13
Aperio Group Llc 2017-03-31 2,188 $-7.73 $-16
Archford Capital Strategies Llc 2017-03-31 373 $-7.73 $-2
Argentiere Capital Ag 2017-03-31 55,000 $-7.73 $-425
Arosa Capital Management Lp 2017-03-31 -310,000 $-7.73 $2,396
Arrowgrass Capital Partners Llp 2017-03-31 -300,000 $-7.73 $2,319
A R T Advisors Llc 2017-03-31 70,900 $-7.73 $-548
Ashford Capital Management Inc 2017-03-31 0 $-7.73 $0
Assetmark Inc 2017-03-31 176 $-7.73 $-1
Avalon Advisors Llc 2017-03-31 -1,554 $-7.73 $12
Balentine Llc 2017-03-31 0 $-7.73 $0
Bienville Capital Management Llc 2017-03-31 -1,614 $-7.73 $12
Blair William Co Il 2017-03-31 785 $-7.73 $-6
Bluefin Trading Llc 2017-03-31 -3,750 $-7.73 $28
Bokf Na 2017-03-31 -642 $-7.73 $4
Boston Private Wealth Llc 2017-03-31 -413 $-7.73 $3
Bp Capital Fund Advisors Llc 2017-03-31 -57,521 $-7.73 $444
Brigade Capital Management Lp 2017-03-31 -112,500 $-7.73 $869
Brinker Capital Inc 2017-03-31 67 $-7.73 $0
Brown Brothers Harriman Co 2017-03-31 -385 $-7.73 $2
B S Pension Fund Trustee Ltd Acting For The British Steel P 2017-03-31 -2,788 $-7.73 $21
California State Teachers Retirement System 2017-03-31 -50,400 $-7.73 $389
Canal Insurance Co 2017-03-31 0 $-7.73 $0
Capital Guardian Trust Co 2017-03-31 -101 $-7.73 $0
Capital Innovations Llc 2017-03-31 290 $-7.73 $-2
Capital International Inc Ca 2017-03-31 -500 $-7.73 $3
Capital International Ltd Ca 2017-03-31 1,600 $-7.73 $-12
Capital International Sarl 2017-03-31 -2,300 $-7.73 $17
Capital Wealth Planning Llc 2017-03-31 0 $-7.73 $0
Capstone Investment Advisors Llc 2017-03-31 58,532 $-7.73 $-452
Carlson Capital L P 2017-03-31 -195,396 $-7.73 $1,510
Caxton Associates Lp 2017-03-31 -27,495 $-7.73 $212
Cedar Wealth Management Llc 2017-03-31 0 $-7.73 $0
Cetera Advisor Networks Llc 2017-03-31 -312 $-7.73 $2
Chelsea Counsel Co 2017-03-31 -6,715 $-7.73 $51
Chilton Capital Management Llc 2017-03-31 6,533 $-7.73 $-50
Cna Financial Corp 2017-03-31 0 $-7.73 $0
Cognios Capital Llc 2017-03-31 -3,761 $-7.73 $29
Compagnie Lombard Odier Scma 2017-03-31 -13,700 $-7.73 $105
Compton Capital Management Inc Ri 2017-03-31 -3,150 $-7.73 $24
Corecommodity Management Llc 2017-03-31 2 $-7.73 $0
Cornerstone Capital Management Holdings Llc 2017-03-31 159,461 $-7.73 $-1,232
Covington Capital Management 2017-03-31 22,401 $-7.73 $-173
Cqs Cayman Lp 2017-03-31 -5,970 $-7.73 $46
Css Llc Il 2017-03-31 -12,050 $-7.73 $93
Cushing Asset Management Lp 2017-03-31 0 $-7.73 $0
D A Davidson Co 2017-03-31 -3,741 $-7.73 $28
Dana Investment Advisors Inc 2017-03-31 33,234 $-7.73 $-256
Dorazio Associates Inc 2017-03-31 0 $-7.73 $0
Eagle Capital Management Llc 2017-03-31 -15,159 $-7.73 $117
Eagle Global Advisors Llc 2017-03-31 0 $-7.73 $0
Edmond De Rothschild Holding S A 2017-03-31 23,600 $-7.73 $-182
Elco Management Co Llc 2017-03-31 50 $-7.73 $0
Elkhorn Investments Llc 2017-03-31 -15,792 $-7.73 $122
Ellington Management Group Llc 2017-03-31 10,000 $-7.73 $-77
Encompass Capital Advisors Llc 2017-03-31 -740,000 $-7.73 $5,720
Energy Opportunities Capital Management Llc 2017-03-31 -2,050 $-7.73 $15
Envestnet Asset Management Inc 2017-03-31 -3,848 $-7.73 $29
Estabrook Capital Management 2017-03-31 0 $-7.73 $0
Eulav Asset Management 2017-03-31 6,000 $-7.73 $-46
Fdo Partners Llc 2017-03-31 21,628 $-7.73 $-167
Fdx Advisors Inc 2017-03-31 1,534 $-7.73 $-11
Fic Capital Inc 2017-03-31 705 $-7.73 $-5
Fiera Capital Corp 2017-03-31 2,960 $-7.73 $-22
First Republic Investment Management Inc 2017-03-31 15,897 $-7.73 $-122
Focused Wealth Management Inc 2017-03-31 -154 $-7.73 $1
Folger Hill Asset Management Lp 2017-03-31 -107,801 $-7.73 $833
Frontier Investment Mgmt Co 2017-03-31 10,061 $-7.73 $-77
Glassman Wealth Services 2017-03-31 -311 $-7.73 $2
Glg Llc 2017-03-31 -44 $-7.73 $0
Glg Partners Lp 2017-03-31 153,776 $-7.73 $-1,188
Godshalk Welsh Capital Management Inc 2017-03-31 0 $-7.73 $0
Gotham Asset Management Llc 2017-03-31 -39,961 $-7.73 $308
Graticule Asia Macro Advisors Llc 2017-03-31 -127,500 $-7.73 $985
Gratus Capital Llc 2017-03-31 0 $-7.73 $0
Group One Trading L P 2017-03-31 -34,801 $-7.73 $269
Gsa Capital Partners Llp 2017-03-31 15,911 $-7.73 $-122
Guggenheim Capital Llc 2017-03-31 55,912 $-7.73 $-432
Hbk Sorce Advisory Llc 2017-03-31 -3,259 $-7.73 $25
Highbridge Capital Management Llc 2017-03-31 572 $-7.73 $-4
Highlander Capital Management Llc 2017-03-31 -1,000 $-7.73 $7
Hoplite Capital Management L P 2017-03-31 328,561 $-7.73 $-2,539
Horizon Kinetics Llc 2017-03-31 0 $-7.73 $0
Hrs Investment Holdings Llc 2017-03-31 17,500 $-7.73 $-135
Icm Asset Management Inc Wa 2017-03-31 -4,010 $-7.73 $30
Ifp Advisors Inc 2017-03-31 78 $-7.73 $0
Iht Wealth Management Llc 2017-03-31 -621 $-7.73 $4
Intact Investment Management Inc 2017-03-31 -9,400 $-7.73 $72
Intellectus Partners Llc 2017-03-31 0 $-7.73 $0
Invictus Rg 2017-03-31 -15 $-7.73 $0
Israel Discount Bank Of New York 2017-03-31 -80 $-7.73 $0
Jabre Capital Partners S A 2017-03-31 50,000 $-7.73 $-386
Jacobs Levy Equity Management Inc 2017-03-31 -102,370 $-7.73 $791
Jafra Capital Management Lp 2017-03-31 -10,000 $-7.73 $77
Jane Street Group Llc 2017-03-31 155,231 $-7.73 $-1,199
Johnson Investment Counsel Inc 2017-03-31 -198 $-7.73 $1
Kelly Lawrence W Associates Inc Ca 2017-03-31 7 $-7.73 $0
Kentucky Retirement Systems 2017-03-31 -4,718 $-7.73 $36
Kentucky Retirement Systems Insurance Trust Fund 2017-03-31 -2,980 $-7.73 $23
Kernodle Katon Asset Management Group Llc 2017-03-31 0 $-7.73 $0
Key Group Holdings Cayman Ltd 2017-03-31 1,400 $-7.73 $-10
Kimelman Baird Llc 2017-03-31 0 $-7.73 $0
Krilogy Financial Llc 2017-03-31 0 $-7.73 $0
Ladenburg Thalmann Financial Services Inc 2017-03-31 668 $-7.73 $-5
Lebenthal Asset Management Llc 2017-03-31 3,990 $-7.73 $-30
Lee Financial Corp 2017-03-31 0 $-7.73 $0
Level Four Advisory Services Llc 2017-03-31 -3,461 $-7.73 $26
Lnz Capital Lp 2017-03-31 795,000 $-7.73 $-6,145
Loomis Sayles Co L P 2017-03-31 34,300 $-7.73 $-265
L S Advisors Inc 2017-03-31 -26,893 $-7.73 $207
Lumbard Kellner Llc 2017-03-31 -3,016 $-7.73 $23
Marietta Investment Partners Llc 2017-03-31 -5,000 $-7.73 $38
Mariner Wealth Advisors Llc 2017-03-31 -4,870 $-7.73 $37
Mason Street Advisors Llc 2017-03-31 792 $-7.73 $-6
Meadow Creek Investment Management Llc 2017-03-31 1,424 $-7.73 $-11
Menora Mivtachim Holdings Ltd 2017-03-31 0 $-7.73 $0
Mik Capital Llc 2017-03-31 -231,068 $-7.73 $1,786
Moore Capital Management Lp 2017-03-31 -2,035 $-7.73 $15
Mv Capital Management Inc 2017-03-31 0 $-7.73 $0
Neuburgh Advisers Llc 2017-03-31 1,958 $-7.73 $-15
New York Life Trust Co 2017-03-31 88 $-7.73 $0
Northwestern Mutual Investment Management Company Llc 2017-03-31 48,815 $-7.73 $-377
Northwestern Mutual Wealth Management Co 2017-03-31 -1,943 $-7.73 $15
Optimum Investment Advisors 2017-03-31 -350 $-7.73 $2
Pacific Center For Financial Services 2017-03-31 0 $-7.73 $0
Paloma Partners Management Co 2017-03-31 59,526 $-7.73 $-460
Passport Capital Llc 2017-03-31 -200,000 $-7.73 $1,546
Perella Weinberg Partners Capital Management Lp 2017-03-31 -23,438 $-7.73 $181
Perigon Wealth Management Llc 2017-03-31 0 $-7.73 $0
Piedmont Investment Advisors Llc 2017-03-31 1,027 $-7.73 $-7
Pinkerton Retirement Specialists Llc 2017-03-31 -74 $-7.73 $0
Price Michael F 2017-03-31 0 $-7.73 $0
Proficio Capital Partners Llc 2017-03-31 -14 $-7.73 $0
Public Employees Retirement System Of Ohio 2017-03-31 0 $-7.73 $0
Rainier Investment Management Llc 2017-03-31 -2,610 $-7.73 $20
Raymond James Associates 2017-03-31 7,827 $-7.73 $-60
Reynders Mcveigh Capital Management Llc 2017-03-31 3,678 $-7.73 $-28
Riverhead Capital Management Llc 2017-03-31 2,296 $-7.73 $-17
Rocky Mountain Advisers Llc 2017-03-31 0 $-7.73 $0
Rodgers Brothers Inc 2017-03-31 -1,200 $-7.73 $9
Salem Investment Counselors Inc 2017-03-31 -552 $-7.73 $4
Schonfeld Strategic Advisors Llc 2017-03-31 64,470 $-7.73 $-498
Sciencast Management Lp 2017-03-31 4,475 $-7.73 $-34
Scoria Capital Partners Lp 2017-03-31 -10,000 $-7.73 $77
Scotia Capital Inc 2017-03-31 9,893 $-7.73 $-76
Segall Bryant Hamill Llc 2017-03-31 -620 $-7.73 $4
Sentinel Asset Management Inc 2017-03-31 45,000 $-7.73 $-347
Seven Eight Capital Lp 2017-03-31 66,600 $-7.73 $-514
Silvercrest Asset Management Group Llc 2017-03-31 381 $-7.73 $-2
Sir Capital Management L P 2017-03-31 -318,100 $-7.73 $2,458
Southport Management L L C 2017-03-31 -5,000 $-7.73 $38
Sowell Financial Services Llc 2017-03-31 -981 $-7.73 $7
Squarepoint Ops Llc 2017-03-31 77,772 $-7.73 $-601
Srs Capital Advisors Inc 2017-03-31 -1 $-7.73 $0
Sterling Capital Management Llc 2017-03-31 -21,695 $-7.73 $167
Sterling Investment Advisors Ltd 2017-03-31 0 $-7.73 $0
Stifel Financial Corp 2017-03-31 -14,909 $-7.73 $115
Stonebridge Capital Advisors Llc 2017-03-31 -500 $-7.73 $3
Strategic Wealth Advisors Group Llc 2017-03-31 3,293 $-7.73 $-25
Taurus Asset Management Llc 2017-03-31 -600 $-7.73 $4
Tortoise Investment Management Llc 2017-03-31 0 $-7.73 $0
Tph Asset Management Llc 2017-03-31 33,384 $-7.73 $-258
Two Sigma Securities Llc 2017-03-31 5,319 $-7.73 $-41
Tyers Asset Management Llc 2017-03-31 2,492 $-7.73 $-19
United Capital Financial Advisers Llc 2017-03-31 -6,484 $-7.73 $50
Veritable L P 2017-03-31 238 $-7.73 $-1
Verition Fund Management Llc 2017-03-31 8,143 $-7.73 $-62
Voloridge Investment Management Llc 2017-03-31 556,186 $-7.73 $-4,299
Vr Advisory Services Ltd 2017-03-31 0 $-7.73 $0
Wafra Investment Advisory Group Inc Ny 2017-03-31 94,755 $-7.73 $-732
Walleye Trading Llc 2017-03-31 26,749 $-7.73 $-206
Wasatch Advisors Inc 2017-03-31 -17,115 $-7.73 $132
Waters Parkerson Co Llc 2017-03-31 136 $-7.73 $-1
Webster Bank N A 2017-03-31 224 $-7.73 $-1
Westport Asset Management Inc 2017-03-31 0 $-7.73 $0
Westwood Holdings Group Inc 2017-03-31 0 $-7.73 $0
Yorkbridge Wealth Partners Llc 2017-03-31 -334 $-7.73 $2
Zimmer Partners Lp 2017-03-31 -3,132,292 $-7.73 $24,212